This is the latest recevied weather packets stored in our database for station/object KD2ZLA. If no packets are shown the sender has not sent any weather packets the latest 10 day(s).
| Time | Temp. | Humidity | Pressure | Rain* | Wind** | Luminosity | Snow |
|---|---|---|---|---|---|---|---|
| 1778001716 | 16.67° C | 79% | 1002.2 hPa | 0.51 mm | - | 100 W/m² | - |
| 1778001415 | 16.67° C | 79% | 1002.1 hPa | 0.51 mm | - | 114 W/m² | - |
| 1778001113 | 17.22° C | 76% | 1002.1 hPa | 0.51 mm | - | 95 W/m² | - |
| 1778000810 | 17.78° C | 74% | 1002.1 hPa | 0.51 mm | - | 136 W/m² | - |
| 1778000506 | 18.89° C | 66% | 1001.8 hPa | 0 mm | - | 55 W/m² | - |
| 1778000206 | 20° C | 60% | 1001.5 hPa | 0 mm | - | 35 W/m² | - |
| 1777999903 | 20.56° C | 57% | 1001.4 hPa | 0 mm | - | 59 W/m² | - |
| 1777999598 | 20.56° C | 58% | 1001.3 hPa | 0 mm | - | 133 W/m² | - |
| 1777999296 | 20° C | 58% | 1001.3 hPa | 0 mm | - | 74 W/m² | - |
| 1777998994 | 20.56° C | 58% | 1001.5 hPa | 0 mm | - | 71 W/m² | - |
| 1777998692 | 20.56° C | 58% | 1001.3 hPa | 0 mm | - | 117 W/m² | - |
| 1777998389 | 20° C | 57% | 1001.5 hPa | 0 mm | - | 69 W/m² | - |
| 1777998087 | 20° C | 58% | 1001.4 hPa | 0 mm | - | 59 W/m² | - |
| 1777997784 | 20.56° C | 57% | 1001.5 hPa | 0 mm | - | 54 W/m² | - |
| 1777997481 | 20.56° C | 57% | 1001.5 hPa | 0 mm | - | 51 W/m² | - |
| 1777997178 | 20.56° C | 56% | 1001.5 hPa | 0 mm | - | 84 W/m² | - |
| 1777996876 | 20.56° C | 57% | 1001.4 hPa | 0 mm | - | 257 W/m² | - |
| 1777996571 | 20.56° C | 56% | 1001.5 hPa | 0 mm | - | 274 W/m² | - |
| 1777996268 | 21.11° C | 54% | 1001.4 hPa | 0 mm | - | 209 W/m² | - |
| 1777995964 | 21.11° C | 54% | 1001.3 hPa | 0 mm | - | 178 W/m² | - |
| 1777995660 | 21.67° C | 53% | 1001.5 hPa | 0 mm | - | 251 W/m² | - |
| 1777995358 | 21.67° C | 53% | 1001.3 hPa | 0 mm | - | 288 W/m² | - |
| 1777995055 | 21.67° C | 53% | 1001.1 hPa | 0 mm | - | 394 W/m² | - |
| 1777994752 | 21.67° C | 53% | 1001.2 hPa | 0 mm | - | 369 W/m² | - |
| 1777994447 | 21.67° C | 54% | 1000.9 hPa | 0 mm | - | 303 W/m² | - |
* Rain latest hour (hover to see other rain measurements)
** Current wind speed in m/s (hover to see current wind gust speed)